sim
Sign-in with your pilot id or email,
or register
Callsign
Passwort

Schedule Details

Flight Number: DLH2661 (1)
Departure: Palma de Mallorca Airport (LEPA) at 11:45
Arrival: Munich Airport (EDDM) at 13:55
Route: Lufthansa Passenger Schedule. Enter filed route here before submitting Pirep.

Weather Information
Getting current METAR information for LEPA 190230Z 11004KT 070V140 9999 FEW012 22/// Q1014 NOSIG
Getting current METAR information for EDDM 190220Z VRB02KT CAVOK 05/03 Q1021 NOSIG

Schedule Frequency

Route Map